createdAt,value
2022-12-18T00:00:06.833Z,24.80
2022-12-18T00:05:10.017Z,18.20
2022-12-18T00:10:15.485Z,18.30
2022-12-18T00:15:18.421Z,19.00
2022-12-18T00:20:26.537Z,21.20
2022-12-18T00:25:29.432Z,20.60
2022-12-18T00:30:32.257Z,20.70
2022-12-18T00:35:35.033Z,16.50
2022-12-18T00:40:37.820Z,18.50
2022-12-18T00:45:40.689Z,17.30
2022-12-18T00:50:43.576Z,20.90
2022-12-18T00:55:47.027Z,14.70
2022-12-18T01:00:49.894Z,20.50
2022-12-18T01:05:52.827Z,29.60
2022-12-18T01:10:55.610Z,26.80
2022-12-18T01:15:58.457Z,18.30
2022-12-18T01:21:01.493Z,16.10
2022-12-18T01:26:15.554Z,22.80
2022-12-18T01:31:20.535Z,20.40
2022-12-18T01:36:25.222Z,23.10
2022-12-18T01:41:52.348Z,26.90
2022-12-18T01:46:55.147Z,26.60
2022-12-18T01:51:57.969Z,24.10
2022-12-18T01:57:02.096Z,29.40
2022-12-18T02:02:05.050Z,24.20
2022-12-18T02:07:19.970Z,24.70
2022-12-18T02:12:25.687Z,21.20
2022-12-18T02:17:36.407Z,21.40
2022-12-18T02:22:45.964Z,17.50
2022-12-18T02:27:51.986Z,8.30
2022-12-18T02:32:57.336Z,12.20
2022-12-18T02:38:01.336Z,15.90
2022-12-18T02:43:09.720Z,18.20
2022-12-18T02:48:12.569Z,16.60
2022-12-18T02:53:43.664Z,10.90
2022-12-18T02:59:31.717Z,17.20
2022-12-18T03:05:05.189Z,19.10
2022-12-18T03:10:12.798Z,12.40
2022-12-18T03:15:24.339Z,15.40
2022-12-18T03:20:30.346Z,13.00
2022-12-18T03:25:35.840Z,17.10
2022-12-18T03:30:42.042Z,14.00
2022-12-18T03:35:45.240Z,18.80
2022-12-18T03:40:51.133Z,20.60
2022-12-18T03:46:06.503Z,22.10
2022-12-18T03:51:22.924Z,22.10
2022-12-18T03:56:30.852Z,17.80
2022-12-18T04:01:38.719Z,20.90
2022-12-18T04:06:44.661Z,18.30
2022-12-18T04:11:48.699Z,26.20
2022-12-18T04:16:51.461Z,22.60
2022-12-18T04:21:54.322Z,23.10
2022-12-18T04:26:57.158Z,23.70
2022-12-18T04:32:00.025Z,26.00
2022-12-18T04:37:03.217Z,27.40
2022-12-18T04:42:06.160Z,29.30
2022-12-18T04:47:08.991Z,23.70
2022-12-18T04:52:11.776Z,25.40
2022-12-18T04:57:14.769Z,45.30
2022-12-18T05:02:17.731Z,39.50
2022-12-18T05:07:20.715Z,40.50
2022-12-18T05:12:24.738Z,32.80
2022-12-18T05:17:27.533Z,39.80
2022-12-18T05:22:30.306Z,43.60
2022-12-18T05:27:33.213Z,35.80
2022-12-18T05:32:35.985Z,41.10
2022-12-18T05:37:42.945Z,72.30
2022-12-18T05:42:48.288Z,65.70
2022-12-18T05:47:51.052Z,43.50
2022-12-18T05:52:53.817Z,41.60
2022-12-18T05:57:56.610Z,48.60
2022-12-18T06:03:00.438Z,64.80
2022-12-18T06:08:03.427Z,46.00
2022-12-18T06:13:07.154Z,47.70
2022-12-18T06:18:10.052Z,46.30
2022-12-18T06:23:12.908Z,52.70
2022-12-18T06:28:15.692Z,52.30
2022-12-18T06:33:18.565Z,55.60
2022-12-18T06:38:21.389Z,59.90
2022-12-18T06:43:24.165Z,57.30
2022-12-18T06:48:26.986Z,50.10
2022-12-18T06:53:30.568Z,52.30
2022-12-18T06:58:34.158Z,60.20
2022-12-18T07:03:38.431Z,42.00
2022-12-18T07:08:41.549Z,45.80
2022-12-18T07:13:44.930Z,45.00
2022-12-18T07:18:48.151Z,50.70
2022-12-18T07:23:53.696Z,52.80
2022-12-18T07:28:59.800Z,44.10
2022-12-18T07:34:02.675Z,35.20
2022-12-18T07:39:05.642Z,43.00
2022-12-18T07:44:11.772Z,39.70
2022-12-18T07:49:14.741Z,42.20
2022-12-18T07:54:18.270Z,32.00
2022-12-18T07:59:21.091Z,46.70
2022-12-18T08:04:23.952Z,39.70
2022-12-18T08:09:29.058Z,35.00
2022-12-18T08:14:34.392Z,38.00
2022-12-18T08:19:37.156Z,44.90
2022-12-18T08:24:39.967Z,40.70
2022-12-18T08:29:44.291Z,40.00
2022-12-18T08:34:47.079Z,36.60
2022-12-18T08:39:50.032Z,40.10
2022-12-18T08:44:52.939Z,41.80
2022-12-18T08:49:55.943Z,28.50
2022-12-18T08:54:58.772Z,34.80
2022-12-18T09:00:01.597Z,47.20
2022-12-18T09:05:05.247Z,45.50
2022-12-18T09:10:08.568Z,27.30
2022-12-18T09:15:11.477Z,45.00
2022-12-18T09:20:14.325Z,46.00
2022-12-18T09:25:18.044Z,40.10
2022-12-18T09:30:21.164Z,47.10
2022-12-18T09:35:26.163Z,48.60
2022-12-18T09:40:37.398Z,47.10
2022-12-18T09:45:47.293Z,45.60
2022-12-18T09:50:52.691Z,54.50
2022-12-18T09:55:57.527Z,43.50
2022-12-18T10:01:00.689Z,44.60
2022-12-18T10:06:14.838Z,53.40
2022-12-18T10:11:26.922Z,39.80
2022-12-18T10:16:44.688Z,51.20
2022-12-18T10:22:11.701Z,38.00
2022-12-18T10:27:22.685Z,53.40
2022-12-18T10:32:31.984Z,45.30
2022-12-18T10:37:34.856Z,49.90
2022-12-18T10:42:39.456Z,46.40
2022-12-18T10:47:49.426Z,44.70
2022-12-18T10:53:00.520Z,47.10
2022-12-18T10:58:30.129Z,27.00
2022-12-18T11:03:39.128Z,53.70
2022-12-18T11:08:44.670Z,53.50
2022-12-18T11:14:12.750Z,45.40
2022-12-18T11:19:45.761Z,46.70
2022-12-18T11:25:34.505Z,51.80
2022-12-18T11:30:39.079Z,50.70
2022-12-18T11:35:58.614Z,45.30
2022-12-18T11:41:05.312Z,59.10
2022-12-18T11:46:24.202Z,34.10
2022-12-18T11:51:33.574Z,42.10
2022-12-18T11:56:38.153Z,71.00
2022-12-18T12:01:56.559Z,56.90
2022-12-18T12:07:20.873Z,59.10
2022-12-18T12:12:57.520Z,49.00
2022-12-18T12:18:16.160Z,54.20
2022-12-18T12:23:21.544Z,56.10
2022-12-18T12:28:53.852Z,52.90
2022-12-18T12:34:18.656Z,60.60
2022-12-18T12:39:31.670Z,54.20
2022-12-18T12:44:52.772Z,49.60
2022-12-18T12:50:02.911Z,48.80
2022-12-18T12:55:17.673Z,59.70
2022-12-18T13:00:21.374Z,72.10
2022-12-18T13:05:46.543Z,64.80
2022-12-18T13:11:11.415Z,60.10
2022-12-18T13:16:21.118Z,61.10
2022-12-18T13:21:31.595Z,62.90
2022-12-18T13:26:35.589Z,63.80
2022-12-18T13:31:42.287Z,52.30
2022-12-18T13:36:46.884Z,57.70
2022-12-18T13:41:53.599Z,60.10
2022-12-18T13:46:57.055Z,49.40
2022-12-18T13:52:00.221Z,58.10
2022-12-18T13:57:07.359Z,47.20
2022-12-18T14:02:13.249Z,62.00
2022-12-18T14:12:44.810Z,55.20
2022-12-18T14:18:16.403Z,58.90
2022-12-18T14:23:46.176Z,45.60
2022-12-18T14:28:49.163Z,62.60
2022-12-18T14:33:53.281Z,63.10
2022-12-18T14:39:00.230Z,51.30
2022-12-18T14:49:33.876Z,64.70
2022-12-18T14:54:38.550Z,67.70
2022-12-18T14:59:41.384Z,44.50
2022-12-18T15:04:45.143Z,39.40
2022-12-18T15:10:09.879Z,68.70
2022-12-18T15:15:38.645Z,66.60
2022-12-18T15:21:00.291Z,68.10
2022-12-18T15:26:04.932Z,60.90
2022-12-18T15:31:17.805Z,64.60
2022-12-18T15:36:26.798Z,54.20
2022-12-18T15:41:35.787Z,60.20
2022-12-18T15:46:39.125Z,56.80
2022-12-18T15:51:43.390Z,36.20
2022-12-18T15:57:05.988Z,66.60
2022-12-18T16:02:17.526Z,55.00
2022-12-18T16:07:24.889Z,56.10
2022-12-18T16:12:29.104Z,56.00
2022-12-18T16:17:32.248Z,67.30
2022-12-18T16:22:35.069Z,51.70
2022-12-18T16:27:37.901Z,55.40
2022-12-18T16:32:41.088Z,41.10
2022-12-18T16:37:46.341Z,63.20
2022-12-18T16:42:49.542Z,60.50
2022-12-18T16:47:54.619Z,50.00
2022-12-18T16:52:57.454Z,49.70
2022-12-18T16:58:00.255Z,67.00
2022-12-18T17:03:03.333Z,49.60
2022-12-18T17:08:06.581Z,46.80
2022-12-18T17:13:10.381Z,45.90
2022-12-18T17:18:13.173Z,57.60
2022-12-18T17:23:15.980Z,58.60
2022-12-18T17:28:20.525Z,48.70
2022-12-18T17:33:25.122Z,47.70
2022-12-18T17:38:27.907Z,50.70
2022-12-18T17:43:31.206Z,39.80
2022-12-18T17:48:34.144Z,39.50
2022-12-18T17:53:41.819Z,49.80
2022-12-18T17:58:45.148Z,46.60
2022-12-18T18:03:50.361Z,60.30
2022-12-18T18:08:57.667Z,48.60
2022-12-18T18:14:01.007Z,62.00
2022-12-18T18:19:09.632Z,44.20
2022-12-18T18:24:14.736Z,46.70
2022-12-18T18:29:20.326Z,48.00
2022-12-18T18:34:26.483Z,40.70
2022-12-18T18:39:29.778Z,41.10
2022-12-18T18:44:32.865Z,46.40
2022-12-18T18:49:35.698Z,44.50
2022-12-18T18:54:44.322Z,41.30
2022-12-18T18:59:55.031Z,69.20
2022-12-18T19:04:57.924Z,104.00
2022-12-18T19:10:04.189Z,76.80
2022-12-18T19:15:08.163Z,83.50
2022-12-18T19:20:12.398Z,64.50
2022-12-18T19:25:15.339Z,44.40
2022-12-18T19:30:18.505Z,82.20
2022-12-18T19:35:21.319Z,70.20
2022-12-18T19:40:25.186Z,51.90
2022-12-18T19:45:29.093Z,45.60
2022-12-18T19:50:32.169Z,45.50
2022-12-18T19:55:42.019Z,40.70
2022-12-18T20:00:48.095Z,51.00
2022-12-18T20:05:50.934Z,53.20
2022-12-18T20:10:54.149Z,49.30
2022-12-18T20:15:57.565Z,55.60
2022-12-18T20:21:05.504Z,47.50
2022-12-18T20:26:10.139Z,82.20
2022-12-18T20:31:14.158Z,72.20
2022-12-18T20:42:12.946Z,54.60
2022-12-18T20:47:16.212Z,60.50
2022-12-18T20:52:19.147Z,51.10
2022-12-18T20:57:23.206Z,41.10
2022-12-18T21:02:26.089Z,41.30
2022-12-18T21:07:29.189Z,53.50
2022-12-18T21:12:40.223Z,47.60
2022-12-18T21:17:51.110Z,52.90
2022-12-18T21:22:54.071Z,53.60
2022-12-18T21:28:00.287Z,60.60
2022-12-18T21:33:03.538Z,98.00
2022-12-18T21:38:06.385Z,63.40
2022-12-18T21:43:29.209Z,58.60
2022-12-18T21:48:32.142Z,54.20
2022-12-18T21:53:34.923Z,54.40
2022-12-18T21:58:37.671Z,60.50
2022-12-18T22:03:40.636Z,65.20
2022-12-18T22:08:44.111Z,46.00
2022-12-18T22:18:53.769Z,60.40
2022-12-18T22:24:01.852Z,53.60
2022-12-18T22:29:24.557Z,73.90
2022-12-18T22:34:28.836Z,84.70
2022-12-18T22:39:33.147Z,59.20
2022-12-18T22:44:36.514Z,66.20
2022-12-18T22:49:39.679Z,54.10
2022-12-18T22:54:42.487Z,61.70
2022-12-18T22:59:45.365Z,64.10
2022-12-18T23:04:48.200Z,47.80
2022-12-18T23:09:51.377Z,45.90
2022-12-18T23:15:02.353Z,41.20
2022-12-18T23:20:07.249Z,40.60
2022-12-18T23:25:10.103Z,42.90
2022-12-18T23:30:13.454Z,39.20
2022-12-18T23:35:17.898Z,44.50
2022-12-18T23:40:20.700Z,42.90
2022-12-18T23:45:23.907Z,49.90
2022-12-18T23:50:29.457Z,43.60
2022-12-18T23:55:38.740Z,46.60
